Time;durP1;ratioP1;P1;durP2;ratioP2;P2;SDS_P1;SDS_P2;PMS_P1;PMS_P2;Temp;Humidity;BMP_temperature;BMP_pressure;BME280_temperature;BME280_humidity;BME280_pressure;Samples;Min_cycle;Max_cycle;Signal;HPM_P1;HPM_P2
2021/08/20 00:01:01;;;;;;;3.88;3.10;;;16.30;99.90;;;;;;5029961;28;20065;-78
2021/08/20 00:03:26;;;;;;;3.58;2.60;;;16.30;99.90;;;;;;5030268;28;20056;-78
2021/08/20 00:05:52;;;;;;;3.10;2.58;;;16.30;99.90;;;;;;5031416;28;20468;-79
2021/08/20 00:08:18;;;;;;;3.78;2.88;;;16.30;99.90;;;;;;5028716;28;20037;-78
2021/08/20 00:10:43;;;;;;;3.60;2.88;;;16.30;99.90;;;;;;5012713;28;20026;-78
2021/08/20 00:13:09;;;;;;;4.22;2.60;;;16.30;99.90;;;;;;5030641;28;20148;-79
2021/08/20 00:15:35;;;;;;;2.85;2.40;;;16.30;99.90;;;;;;5012406;28;20040;-78
2021/08/20 00:18:01;;;;;;;3.13;2.47;;;16.30;99.90;;;;;;5028381;28;20605;-78
2021/08/20 00:20:27;;;;;;;3.03;2.65;;;16.30;99.90;;;;;;5013017;28;20049;-78
2021/08/20 00:22:52;;;;;;;3.10;2.78;;;16.30;99.90;;;;;;5030492;28;20164;-78
2021/08/20 00:25:18;;;;;;;3.53;2.95;;;16.30;99.90;;;;;;5014117;28;20057;-78
2021/08/20 00:27:44;;;;;;;2.92;2.33;;;16.30;99.90;;;;;;5034697;28;20030;-78
2021/08/20 00:30:10;;;;;;;3.40;2.95;;;16.30;99.90;;;;;;5030217;28;20048;-79
2021/08/20 00:32:37;;;;;;;3.00;2.40;;;16.30;99.90;;;;;;5007203;28;20487;-79
2021/08/20 00:35:04;;;;;;;3.35;2.65;;;16.30;99.90;;;;;;5034482;28;20021;-78
2021/08/20 00:37:29;;;;;;;3.78;2.80;;;16.30;99.90;;;;;;5034543;28;20025;-78
2021/08/20 00:39:56;;;;;;;3.00;2.63;;;16.30;99.90;;;;;;5007718;28;20503;-78
2021/08/20 00:42:22;;;;;;;2.50;2.28;;;16.30;99.90;;;;;;5015130;28;20025;-78
2021/08/20 00:44:48;;;;;;;4.88;2.50;;;16.30;99.90;;;;;;5016523;28;20379;-78
2021/08/20 00:47:13;;;;;;;4.13;2.80;;;16.30;99.90;;;;;;5032834;28;20029;-78
2021/08/20 00:49:39;;;;;;;3.22;2.80;;;16.30;99.90;;;;;;5014317;28;20072;-78
2021/08/20 00:52:05;;;;;;;2.72;2.30;;;16.30;99.90;;;;;;5033981;28;20033;-78
2021/08/20 00:54:31;;;;;;;3.20;2.67;;;16.30;99.90;;;;;;5016810;28;20053;-80
2021/08/20 00:56:57;;;;;;;3.10;2.38;;;16.30;99.90;;;;;;5012358;28;20040;-81
2021/08/20 00:59:25;;;;;;;3.63;2.95;;;16.30;99.90;;;;;;5028020;28;20038;-80
2021/08/20 01:01:51;;;;;;;3.60;2.40;;;16.30;99.90;;;;;;5010530;28;20029;-80
2021/08/20 01:04:16;;;;;;;3.10;2.78;;;16.30;99.90;;;;;;5013661;28;20507;-81
2021/08/20 01:06:43;;;;;;;3.42;2.35;;;16.30;99.90;;;;;;5015584;28;20045;-80
2021/08/20 01:09:10;;;;;;;2.70;2.20;;;16.30;99.90;;;;;;5012769;28;20511;-80
2021/08/20 01:11:36;;;;;;;4.10;2.25;;;16.30;99.90;;;;;;5012468;28;20068;-79
2021/08/20 01:14:06;;;;;;;3.08;2.70;;;16.30;99.90;;;;;;5015079;28;20033;-80
2021/08/20 01:16:32;;;;;;;3.67;2.60;;;16.30;99.90;;;;;;5015585;28;20112;-79
2021/08/20 01:18:58;;;;;;;3.25;2.80;;;16.30;99.90;;;;;;5012718;28;20029;-80
2021/08/20 01:21:25;;;;;;;2.90;2.58;;;16.30;99.90;;;;;;4999254;28;20121;-79
2021/08/20 01:24:00;;;;;;;3.25;2.80;;;16.20;99.90;;;;;;5014064;28;20079;-79
2021/08/20 01:26:32;;;;;;;3.40;2.92;;;16.20;99.90;;;;;;5030927;28;20119;-79
2021/08/20 01:28:59;;;;;;;3.20;2.90;;;16.20;99.90;;;;;;5007215;28;20040;-79
2021/08/20 01:31:25;;;;;;;3.55;2.90;;;16.20;99.90;;;;;;4995309;28;20104;-80
2021/08/20 01:33:53;;;;;;;2.97;2.58;;;16.20;99.90;;;;;;5031480;28;20034;-80
2021/08/20 01:36:18;;;;;;;4.00;2.50;;;16.20;99.90;;;;;;5015125;28;20029;-80
2021/08/20 01:38:49;;;;;;;4.05;2.88;;;16.20;99.90;;;;;;5013390;28;20424;-80
2021/08/20 01:41:16;;;;;;;3.70;2.83;;;16.20;99.90;;;;;;5026754;28;20030;-79
2021/08/20 01:43:42;;;;;;;3.15;2.63;;;16.20;99.90;;;;;;5010847;28;20498;-80
2021/08/20 01:46:09;;;;;;;3.38;2.67;;;16.20;99.90;;;;;;5014702;28;20071;-79
2021/08/20 01:48:35;;;;;;;3.33;2.75;;;16.20;99.90;;;;;;5015148;28;20377;-80
2021/08/20 01:51:01;;;;;;;3.70;2.97;;;16.20;99.90;;;;;;4994805;28;20062;-80
2021/08/20 01:53:27;;;;;;;3.03;2.72;;;16.10;99.90;;;;;;5026043;28;20033;-80
2021/08/20 01:55:53;;;;;;;4.10;2.90;;;16.10;99.90;;;;;;4998184;28;20025;-80
2021/08/20 01:58:19;;;;;;;2.67;2.47;;;16.10;99.90;;;;;;5012033;28;20025;-79
2021/08/20 02:00:45;;;;;;;3.67;2.90;;;16.10;99.90;;;;;;5013339;28;20091;-79
2021/08/20 02:03:17;;;;;;;3.40;3.00;;;16.10;99.90;;;;;;5012483;28;20034;-80
2021/08/20 02:05:45;;;;;;;3.33;2.80;;;16.10;99.90;;;;;;5032608;28;20033;-80
2021/08/20 02:08:11;;;;;;;2.75;2.53;;;16.10;99.90;;;;;;4997951;28;20103;-80
2021/08/20 02:10:36;;;;;;;3.35;2.45;;;16.10;99.90;;;;;;4995458;28;20385;-80
2021/08/20 02:13:02;;;;;;;3.00;2.70;;;16.10;99.90;;;;;;5014501;28;20179;-80
2021/08/20 02:15:30;;;;;;;3.58;2.80;;;16.10;99.90;;;;;;5013134;28;20028;-80
2021/08/20 02:17:56;;;;;;;3.25;2.80;;;16.10;99.90;;;;;;5007943;28;20372;-80
2021/08/20 02:20:25;;;;;;;2.83;2.53;;;16.10;99.90;;;;;;5027173;28;20033;-79
2021/08/20 02:22:51;;;;;;;3.88;3.10;;;16.10;99.90;;;;;;5031243;28;20029;-79
2021/08/20 02:25:17;;;;;;;3.92;3.13;;;16.10;99.90;;;;;;5014364;28;20055;-80
2021/08/20 02:27:44;;;;;;;3.58;3.28;;;16.10;99.90;;;;;;4996882;28;20092;-80
2021/08/20 02:30:10;;;;;;;3.63;3.17;;;16.10;99.90;;;;;;5010850;28;20575;-79
2021/08/20 02:32:44;;;;;;;4.05;3.20;;;16.00;99.90;;;;;;4998652;28;20026;-80
2021/08/20 02:35:10;;;;;;;5.35;3.30;;;16.00;99.90;;;;;;4996059;28;20046;-80
2021/08/20 02:37:36;;;;;;;4.43;3.40;;;16.00;99.90;;;;;;5028488;28;20468;-79
2021/08/20 02:40:03;;;;;;;3.80;2.85;;;16.00;99.90;;;;;;5012311;28;20029;-79
2021/08/20 02:42:29;;;;;;;3.28;2.88;;;16.00;99.90;;;;;;5012420;28;20029;-80
2021/08/20 02:44:54;;;;;;;6.30;3.45;;;16.00;99.90;;;;;;5011219;28;20403;-79
2021/08/20 02:47:20;;;;;;;4.47;3.85;;;16.00;99.90;;;;;;4994762;28;20033;-79
2021/08/20 02:49:46;;;;;;;2.95;2.65;;;15.90;99.90;;;;;;5008415;28;20493;-79
2021/08/20 02:52:13;;;;;;;3.85;2.95;;;15.90;99.90;;;;;;4996772;28;20491;-80
2021/08/20 02:54:38;;;;;;;4.18;2.97;;;15.90;99.90;;;;;;5013879;28;20029;-80
2021/08/20 02:57:04;;;;;;;3.70;3.30;;;15.90;99.90;;;;;;4997249;28;20124;-80
2021/08/20 02:59:33;;;;;;;4.28;3.25;;;15.90;99.90;;;;;;5009694;28;20029;-80
2021/08/20 03:02:01;;;;;;;5.30;3.53;;;15.90;99.90;;;;;;4996326;28;20030;-80
2021/08/20 03:04:28;;;;;;;4.55;3.20;;;15.90;99.90;;;;;;5007963;28;20032;-80
2021/08/20 03:06:54;;;;;;;3.38;3.08;;;15.90;99.90;;;;;;5013198;28;20033;-80
2021/08/20 03:09:30;;;;;;;4.03;3.10;;;15.90;99.90;;;;;;5006845;28;20052;-79
2021/08/20 03:11:56;;;;;;;4.72;3.28;;;15.90;99.90;;;;;;5010029;28;20302;-80
2021/08/20 03:14:22;;;;;;;3.72;3.40;;;15.90;99.90;;;;;;4996954;28;20120;-79
2021/08/20 03:16:53;;;;;;;3.55;3.17;;;15.80;99.90;;;;;;4982249;28;20124;-80
2021/08/20 03:19:19;;;;;;;5.32;3.33;;;15.90;99.90;;;;;;5009387;28;20580;-80
2021/08/20 03:21:45;;;;;;;4.30;3.28;;;15.90;99.90;;;;;;5012660;28;20033;-79
2021/08/20 03:24:11;;;;;;;3.83;3.35;;;15.90;99.90;;;;;;5020731;28;20099;-80
2021/08/20 03:26:37;;;;;;;3.60;3.17;;;15.90;99.90;;;;;;5011124;28;20041;-80
2021/08/20 03:29:04;;;;;;;6.22;3.40;;;15.80;99.90;;;;;;5006444;28;20124;-79
2021/08/20 03:31:35;;;;;;;3.65;3.13;;;15.80;99.90;;;;;;5012170;28;20091;-80
2021/08/20 03:34:03;;;;;;;4.55;3.38;;;15.80;99.90;;;;;;5027397;28;20034;-80
2021/08/20 03:36:29;;;;;;;3.78;3.35;;;15.80;99.90;;;;;;5029248;28;20032;-80
2021/08/20 03:39:02;;;;;;;4.22;3.40;;;15.80;99.90;;;;;;4995482;28;20060;-80
2021/08/20 03:41:32;;;;;;;4.50;3.30;;;15.80;99.90;;;;;;4994949;28;20033;-79
2021/08/20 03:44:06;;;;;;;5.53;3.97;;;15.80;99.90;;;;;;4995544;28;20026;-80
2021/08/20 03:46:38;;;;;;;4.38;3.60;;;15.80;99.90;;;;;;5012801;28;20072;-80
2021/08/20 03:49:04;;;;;;;3.50;2.97;;;15.80;99.90;;;;;;5010676;28;20096;-80
2021/08/20 03:51:31;;;;;;;3.80;3.25;;;15.70;99.90;;;;;;5010032;28;20040;-80
2021/08/20 03:53:58;;;;;;;4.25;3.40;;;15.80;99.90;;;;;;4996505;28;20056;-79
2021/08/20 03:56:24;;;;;;;6.22;4.15;;;15.70;99.90;;;;;;5012951;28;20030;-80
2021/08/20 03:59:16;;;;;;;3.90;3.50;;;15.80;99.90;;;;;;5010391;28;20034;-80
2021/08/20 04:01:42;;;;;;;3.63;3.08;;;15.70;99.90;;;;;;5015364;28;20030;-80
2021/08/20 04:04:08;;;;;;;3.05;2.70;;;15.80;99.90;;;;;;5000470;28;20196;-80
2021/08/20 04:06:42;;;;;;;3.78;2.83;;;15.80;99.90;;;;;;5000939;28;20044;-80
2021/08/20 04:09:10;;;;;;;3.63;2.88;;;15.80;99.90;;;;;;5014074;28;20110;-80
2021/08/20 04:12:02;;;;;;;5.22;3.60;;;15.80;99.90;;;;;;5008877;28;20041;-80
2021/08/20 04:14:48;;;;;;;3.80;3.40;;;15.80;99.90;;;;;;5016608;28;20230;-80
2021/08/20 04:17:14;;;;;;;4.18;3.45;;;15.80;99.90;;;;;;5020480;28;20441;-80
2021/08/20 04:19:41;;;;;;;4.07;3.47;;;15.90;99.90;;;;;;5013115;28;20125;-81
2021/08/20 04:22:07;;;;;;;4.13;3.22;;;15.90;99.90;;;;;;5014213;28;20125;-80
2021/08/20 04:24:34;;;;;;;5.68;3.90;;;15.90;99.90;;;;;;5016453;28;20026;-80
2021/08/20 04:27:37;;;;;;;5.10;3.80;;;15.90;99.90;;;;;;5031991;28;20049;-80
2021/08/20 04:30:20;;;;;;;4.05;3.33;;;15.80;99.90;;;;;;5011574;28;20030;-81
2021/08/20 04:32:53;;;;;;;7.47;3.47;;;15.80;99.90;;;;;;5000210;28;20502;-80
2021/08/20 04:35:39;;;;;;;4.15;3.75;;;15.80;99.90;;;;;;4993065;28;20047;-80
2021/08/20 04:38:17;;;;;;;4.22;3.75;;;15.80;99.90;;;;;;5028031;28;20065;-80
2021/08/20 04:41:19;;;;;;;3.85;3.45;;;15.80;99.90;;;;;;4958718;28;20046;-80
2021/08/20 04:44:03;;;;;;;3.63;3.13;;;15.80;99.90;;;;;;5028647;28;20324;-80
2021/08/20 04:46:44;;;;;;;4.22;3.50;;;15.90;99.90;;;;;;4998578;28;20442;-80
2021/08/20 04:49:38;;;;;;;3.55;3.22;;;15.90;99.90;;;;;;5010226;28;20038;-80
2021/08/20 04:52:15;;;;;;;4.20;3.70;;;15.90;99.90;;;;;;5000509;28;20041;-80
2021/08/20 04:55:10;;;;;;;3.97;3.28;;;15.90;99.90;;;;;;5001968;28;20057;-80
2021/08/20 04:57:36;;;;;;;4.10;3.67;;;15.90;99.90;;;;;;5015250;28;20033;-80
2021/08/20 05:00:06;;;;;;;4.38;3.50;;;15.90;99.90;;;;;;5011268;28;20392;-80
2021/08/20 05:02:35;;;;;;;4.35;3.65;;;15.90;99.90;;;;;;4998999;28;20025;-81
2021/08/20 05:05:04;;;;;;;5.45;3.60;;;15.90;99.90;;;;;;5013815;28;20017;-80
2021/08/20 05:07:30;;;;;;;3.20;2.90;;;16.00;99.90;;;;;;5015442;28;20412;-80
2021/08/20 05:09:57;;;;;;;4.13;3.40;;;16.00;99.90;;;;;;5009740;28;20444;-80
2021/08/20 05:12:23;;;;;;;4.70;3.92;;;16.00;99.90;;;;;;5029214;28;20053;-80
2021/08/20 05:14:48;;;;;;;5.50;4.10;;;16.00;99.90;;;;;;5032985;28;20496;-80
2021/08/20 05:17:14;;;;;;;4.50;3.83;;;16.00;99.90;;;;;;5032266;28;20053;-80
2021/08/20 05:19:39;;;;;;;4.18;3.67;;;16.10;99.90;;;;;;5013588;28;20072;-80
2021/08/20 05:22:07;;;;;;;4.97;3.50;;;16.10;99.90;;;;;;4991717;28;20033;-80
2021/08/20 05:24:33;;;;;;;5.10;3.70;;;16.10;99.90;;;;;;5012347;28;20034;-80
2021/08/20 05:26:58;;;;;;;6.22;3.53;;;16.10;99.90;;;;;;4998407;28;20620;-80
2021/08/20 05:29:24;;;;;;;4.38;3.20;;;16.20;99.90;;;;;;4997002;28;20045;-80
2021/08/20 05:31:49;;;;;;;3.97;3.45;;;16.20;99.90;;;;;;5031691;28;20083;-80
2021/08/20 05:34:15;;;;;;;3.40;3.00;;;16.30;99.90;;;;;;5011527;28;20388;-80
2021/08/20 05:36:41;;;;;;;3.95;3.13;;;16.30;99.90;;;;;;5032025;28;20145;-80
2021/08/20 05:39:07;;;;;;;3.60;2.95;;;16.30;99.90;;;;;;5032448;28;20537;-80
2021/08/20 05:41:32;;;;;;;3.45;2.90;;;16.40;99.90;;;;;;5031706;28;20467;-80
2021/08/20 05:43:58;;;;;;;3.20;2.58;;;16.30;99.90;;;;;;5011584;28;20025;-80
2021/08/20 05:46:24;;;;;;;4.20;2.80;;;16.40;99.90;;;;;;4995151;28;20030;-80
2021/08/20 05:48:49;;;;;;;3.78;2.55;;;16.50;99.90;;;;;;5032138;28;20403;-80
2021/08/20 05:51:15;;;;;;;2.85;2.55;;;16.40;99.90;;;;;;5009368;28;20044;-80
2021/08/20 05:53:41;;;;;;;6.18;4.40;;;16.50;99.90;;;;;;4995378;28;20494;-80
2021/08/20 05:56:07;;;;;;;4.10;3.35;;;16.50;99.90;;;;;;4999425;28;20120;-80
2021/08/20 05:58:32;;;;;;;3.38;3.05;;;16.50;99.90;;;;;;5032113;28;20104;-80
2021/08/20 06:00:58;;;;;;;5.78;4.57;;;16.50;99.90;;;;;;5014396;28;20088;-80
2021/08/20 06:03:24;;;;;;;5.05;4.15;;;16.50;99.90;;;;;;4978707;28;20021;-80
2021/08/20 06:05:52;;;;;;;4.90;4.30;;;16.50;99.90;;;;;;5011924;28;20391;-80
2021/08/20 06:08:19;;;;;;;6.32;4.18;;;16.50;99.90;;;;;;4980671;28;20044;-80
2021/08/20 06:10:47;;;;;;;4.88;3.88;;;16.60;99.90;;;;;;5013371;28;20029;-80
2021/08/20 06:13:13;;;;;;;6.05;4.63;;;16.60;99.90;;;;;;4996558;28;20751;-80
2021/08/20 06:15:39;;;;;;;4.32;3.45;;;16.60;99.90;;;;;;5023982;28;20435;-80
2021/08/20 06:18:05;;;;;;;3.90;3.40;;;16.70;99.90;;;;;;5014122;28;20091;-81
2021/08/20 06:20:31;;;;;;;3.55;3.10;;;16.60;99.90;;;;;;5027773;28;20108;-80
2021/08/20 06:22:57;;;;;;;4.15;3.13;;;16.60;99.90;;;;;;5028211;28;20544;-80
2021/08/20 06:25:23;;;;;;;3.85;3.38;;;16.70;99.90;;;;;;4994792;28;20120;-80
2021/08/20 06:27:48;;;;;;;3.50;3.17;;;16.70;99.90;;;;;;5012278;28;20108;-80
2021/08/20 06:30:14;;;;;;;4.50;3.42;;;16.70;99.90;;;;;;5031230;28;20065;-80
2021/08/20 06:32:40;;;;;;;4.95;3.80;;;16.70;99.90;;;;;;5030424;28;20025;-80
2021/08/20 06:35:05;;;;;;;4.35;3.53;;;16.60;99.90;;;;;;5010857;28;20436;-80
2021/08/20 06:37:31;;;;;;;4.50;3.60;;;16.60;99.90;;;;;;5012812;28;20021;-80
2021/08/20 06:39:57;;;;;;;7.20;4.00;;;16.60;99.90;;;;;;5017371;28;20450;-80
2021/08/20 06:42:23;;;;;;;7.03;4.55;;;16.60;99.90;;;;;;5027779;28;20025;-80
2021/08/20 06:44:49;;;;;;;5.75;4.97;;;16.60;99.90;;;;;;5027024;28;20488;-80
2021/08/20 06:47:16;;;;;;;4.80;3.58;;;16.60;99.90;;;;;;4994055;28;20076;-81
2021/08/20 06:49:42;;;;;;;4.65;3.58;;;16.70;99.90;;;;;;5030447;28;20029;-80
2021/08/20 06:52:08;;;;;;;5.05;4.07;;;16.80;99.90;;;;;;5011194;28;20034;-80
2021/08/20 06:54:34;;;;;;;6.22;4.32;;;16.90;99.90;;;;;;5051847;23;20040;-91
2021/08/20 06:57:00;;;;;;;6.10;4.20;;;16.90;99.90;;;;;;5038394;28;20359;-91
2021/08/20 06:59:26;;;;;;;8.93;5.28;;;16.90;99.90;;;;;;5038193;28;20355;-90
2021/08/20 07:01:52;;;;;;;7.45;5.38;;;16.90;99.90;;;;;;5034616;28;20032;-90
2021/08/20 07:04:18;;;;;;;8.55;5.80;;;16.90;99.90;;;;;;5034377;28;20033;-90
2021/08/20 07:06:44;;;;;;;8.52;5.90;;;16.80;99.90;;;;;;5017913;28;20072;-91
2021/08/20 07:09:10;;;;;;;5.72;4.53;;;16.90;99.90;;;;;;5034483;28;20048;-91
2021/08/20 07:11:36;;;;;;;6.10;4.72;;;16.90;99.90;;;;;;5034879;28;20123;-92
2021/08/20 07:14:01;;;;;;;7.50;4.07;;;17.00;99.90;;;;;;5037336;28;20484;-90
2021/08/20 07:16:27;;;;;;;5.10;4.03;;;17.10;99.90;;;;;;5033956;28;20017;-90
2021/08/20 07:18:53;;;;;;;6.00;3.30;;;17.30;99.90;;;;;;5033605;28;20033;-90
2021/08/20 07:21:19;;;;;;;6.05;4.43;;;17.40;99.90;;;;;;5033605;28;20039;-90
2021/08/20 07:23:45;;;;;;;5.45;4.15;;;17.50;99.90;;;;;;5017186;28;20115;-90
2021/08/20 07:26:11;;;;;;;5.47;3.53;;;17.50;99.90;;;;;;5034467;28;20024;-89
2021/08/20 07:28:37;;;;;;;5.28;4.00;;;17.60;99.90;;;;;;5051199;28;20394;-90
2021/08/20 07:31:04;;;;;;;4.85;4.13;;;17.50;99.90;;;;;;5034305;28;20075;-90
2021/08/20 07:33:30;;;;;;;4.90;4.00;;;17.50;99.90;;;;;;5016597;28;20036;-90
2021/08/20 07:35:57;;;;;;;5.55;4.47;;;17.50;99.90;;;;;;5000426;28;20402;-90
2021/08/20 07:38:23;;;;;;;6.18;4.00;;;17.50;99.90;;;;;;5033400;28;20047;-90
2021/08/20 07:40:48;;;;;;;4.63;3.67;;;17.50;99.90;;;;;;5033768;28;20390;-89
2021/08/20 07:43:14;;;;;;;6.57;4.20;;;17.50;99.90;;;;;;5050662;28;20032;-89
2021/08/20 07:45:41;;;;;;;4.85;3.67;;;17.50;99.90;;;;;;5032949;28;20037;-91
2021/08/20 07:48:07;;;;;;;5.80;4.45;;;17.50;99.90;;;;;;5033697;28;20044;-91
2021/08/20 07:50:33;;;;;;;5.53;3.83;;;17.50;99.90;;;;;;5003098;28;20030;-92
2021/08/20 07:52:59;;;;;;;6.22;4.07;;;17.40;99.90;;;;;;5001736;28;20029;-93
2021/08/20 07:55:30;;;;;;;7.60;4.60;;;17.30;99.90;;;;;;5035732;28;20045;-96
2021/08/20 07:58:50;;;;;;;5.38;4.30;;;17.20;99.90;;;;;;5032838;28;20033;-93
2021/08/20 08:49:24;;;;;;;6.95;5.10;;;17.10;99.90;;;;;;5851417;22;20224;-81
2021/08/20 08:51:50;;;;;;;5.93;4.65;;;17.10;99.90;;;;;;5028767;28;20111;-79
2021/08/20 08:54:16;;;;;;;5.22;4.72;;;17.10;99.90;;;;;;5055378;28;20017;-81
2021/08/20 08:56:46;;;;;;;5.28;4.20;;;17.10;99.90;;;;;;5014686;28;20025;-80
2021/08/20 08:59:13;;;;;;;7.70;4.78;;;17.20;99.90;;;;;;5034538;28;20115;-81
2021/08/20 09:01:39;;;;;;;8.00;5.28;;;17.30;99.90;;;;;;5028070;28;20507;-80
2021/08/20 09:04:10;;;;;;;6.18;4.78;;;17.50;99.90;;;;;;5031886;28;20037;-80
2021/08/20 09:06:47;;;;;;;5.97;4.60;;;17.70;99.90;;;;;;5017652;28;20479;-81
2021/08/20 09:09:18;;;;;;;7.45;5.22;;;17.90;99.90;;;;;;5036522;28;20086;-81
2021/08/20 09:11:49;;;;;;;7.85;5.07;;;18.00;99.90;;;;;;5025632;28;20025;-80
2021/08/20 09:14:17;;;;;;;7.80;5.45;;;18.10;99.90;;;;;;5029249;28;20081;-80
2021/08/20 09:16:45;;;;;;;9.02;5.38;;;18.30;99.90;;;;;;5016339;28;20104;-79
2021/08/20 09:19:21;;;;;;;5.55;4.30;;;18.40;99.90;;;;;;5051299;28;20109;-80
2021/08/20 09:21:53;;;;;;;6.32;5.05;;;18.50;99.90;;;;;;5045750;28;20060;-81
2021/08/20 09:24:36;;;;;;;4.82;3.90;;;18.80;99.90;;;;;;5019182;28;20113;-81
2021/08/20 09:27:14;;;;;;;6.10;4.78;;;18.90;99.90;;;;;;5034108;28;20468;-80
2021/08/20 09:30:14;;;;;;;5.10;4.28;;;18.90;99.90;;;;;;5037650;28;20036;-80
2021/08/20 09:32:45;;;;;;;4.50;3.72;;;18.80;99.90;;;;;;5005646;28;20660;-81
2021/08/20 09:35:12;;;;;;;5.20;3.92;;;18.60;99.90;;;;;;5027040;28;20025;-81
2021/08/20 09:37:38;;;;;;;4.47;3.58;;;18.50;99.90;;;;;;5030032;28;20752;-81
2021/08/20 09:40:10;;;;;;;5.15;4.15;;;18.40;99.90;;;;;;5028827;28;20531;-80
2021/08/20 09:42:36;;;;;;;6.28;4.25;;;18.30;99.90;;;;;;5028306;28;20427;-81
2021/08/20 09:45:20;;;;;;;4.45;3.70;;;18.20;99.90;;;;;;5027684;28;20029;-81
2021/08/20 09:47:50;;;;;;;6.18;4.35;;;18.20;99.90;;;;;;5018513;28;20037;-81
2021/08/20 09:50:19;;;;;;;4.97;4.35;;;18.10;99.90;;;;;;5042444;28;20051;-80
2021/08/20 09:52:46;;;;;;;6.45;4.95;;;18.20;99.90;;;;;;5031838;28;20368;-79
2021/08/20 09:55:13;;;;;;;5.18;4.15;;;18.20;99.90;;;;;;5014072;28;20025;-80
2021/08/20 09:57:40;;;;;;;5.38;4.80;;;18.30;99.90;;;;;;5003730;28;20060;-81
2021/08/20 10:00:09;;;;;;;7.60;6.00;;;18.40;99.90;;;;;;5015863;28;20036;-81
2021/08/20 10:02:40;;;;;;;7.05;4.43;;;18.50;99.90;;;;;;5044354;28;20067;-79
2021/08/20 10:05:07;;;;;;;6.00;4.10;;;18.70;99.90;;;;;;5023578;28;20491;-79
2021/08/20 10:07:38;;;;;;;6.75;5.45;;;18.80;99.90;;;;;;5040118;28;20049;-79
2021/08/20 10:10:06;;;;;;;5.85;5.03;;;19.00;99.90;;;;;;5029527;28;20028;-79
2021/08/20 10:12:32;;;;;;;9.38;5.40;;;18.80;99.90;;;;;;5027453;28;20022;-79
2021/08/20 10:14:58;;;;;;;6.18;4.70;;;18.80;99.90;;;;;;5015672;28;20021;-79
2021/08/20 10:17:24;;;;;;;5.75;4.95;;;19.00;99.90;;;;;;5050788;28;20036;-80
2021/08/20 10:19:50;;;;;;;8.05;5.65;;;19.10;99.90;;;;;;5027700;28;20021;-81
2021/08/20 10:22:18;;;;;;;8.40;5.70;;;19.20;99.90;;;;;;5034173;28;20529;-80
2021/08/20 10:24:44;;;;;;;6.88;5.82;;;19.40;99.90;;;;;;5026358;28;20116;-82
2021/08/20 10:27:11;;;;;;;6.18;4.88;;;19.60;99.90;;;;;;5026727;28;20044;-81
2021/08/20 10:29:47;;;;;;;6.15;5.13;;;19.70;99.90;;;;;;5032636;28;20505;-82
2021/08/20 10:32:16;;;;;;;6.43;5.22;;;20.00;99.90;;;;;;5035083;28;20499;-80
2021/08/20 10:34:42;;;;;;;6.60;5.20;;;20.10;99.90;;;;;;5048578;28;20024;-81
2021/08/20 10:37:30;;;;;;;6.10;4.95;;;20.00;99.90;;;;;;5027631;28;20044;-81
2021/08/20 10:39:59;;;;;;;6.10;4.95;;;20.00;99.90;;;;;;5009983;28;20542;-81
2021/08/20 10:42:48;;;;;;;7.75;5.40;;;19.80;99.90;;;;;;5050480;28;20021;-82
2021/08/20 10:45:13;;;;;;;5.22;4.72;;;19.80;99.90;;;;;;5027100;28;20048;-82
2021/08/20 10:47:40;;;;;;;5.72;4.95;;;19.90;99.90;;;;;;5033016;28;20056;-80
2021/08/20 10:50:16;;;;;;;12.85;4.78;;;20.00;99.90;;;;;;5032611;28;20041;-79
2021/08/20 10:52:52;;;;;;;7.35;5.03;;;20.00;99.90;;;;;;5044428;28;20095;-80
2021/08/20 10:55:21;;;;;;;6.80;4.82;;;20.10;99.90;;;;;;5022812;28;20034;-79
2021/08/20 10:57:55;;;;;;;5.22;4.43;;;20.20;99.90;;;;;;5052858;28;20457;-81
2021/08/20 11:00:20;;;;;;;8.23;4.75;;;20.20;99.90;;;;;;5026191;28;20089;-80
2021/08/20 11:02:51;;;;;;;6.22;5.03;;;20.10;99.90;;;;;;5043931;28;20235;-80
2021/08/20 11:05:19;;;;;;;8.90;5.15;;;20.20;99.90;;;;;;5008589;28;20029;-79
2021/08/20 11:07:45;;;;;;;5.60;4.63;;;20.20;99.90;;;;;;5034437;28;20441;-80
2021/08/20 11:10:11;;;;;;;5.03;4.15;;;20.20;99.90;;;;;;5023904;28;20025;-80
2021/08/20 11:12:49;;;;;;;6.18;3.97;;;20.30;99.90;;;;;;5047715;28;20023;-79
2021/08/20 11:15:20;;;;;;;5.38;4.45;;;20.30;99.90;;;;;;5008074;28;20032;-79
2021/08/20 11:17:57;;;;;;;4.95;4.32;;;20.20;99.90;;;;;;5049240;28;20430;-81
2021/08/20 11:20:35;;;;;;;4.03;3.63;;;20.20;99.90;;;;;;5052740;28;20036;-80
2021/08/20 11:23:11;;;;;;;4.97;4.00;;;20.20;99.90;;;;;;5028057;28;20645;-81
2021/08/20 11:25:44;;;;;;;4.55;3.80;;;20.20;99.90;;;;;;5040384;28;20040;-80
2021/08/20 11:28:33;;;;;;;4.10;3.63;;;20.10;99.90;;;;;;5009642;28;20781;-79
2021/08/20 11:31:07;;;;;;;5.35;3.50;;;20.10;99.90;;;;;;5043895;28;20033;-79
2021/08/20 11:33:35;;;;;;;4.85;3.53;;;20.10;99.90;;;;;;5023410;28;20041;-80
2021/08/20 11:36:04;;;;;;;4.25;3.58;;;20.00;99.90;;;;;;5045017;28;20107;-79
2021/08/20 11:38:34;;;;;;;4.85;3.30;;;19.90;99.90;;;;;;5034465;28;20055;-80
2021/08/20 11:41:29;;;;;;;4.05;3.45;;;19.90;99.90;;;;;;5055555;28;20092;-79
2021/08/20 11:44:03;;;;;;;4.53;3.80;;;20.00;99.90;;;;;;5037851;28;20049;-78
2021/08/20 11:46:44;;;;;;;4.45;3.50;;;20.00;99.90;;;;;;5051530;28;20037;-79
2021/08/20 11:49:11;;;;;;;4.93;3.78;;;19.90;99.90;;;;;;5051978;28;20039;-79
2021/08/20 11:51:41;;;;;;;4.05;3.65;;;19.90;99.90;;;;;;5014299;28;20450;-80
2021/08/20 11:54:11;;;;;;;4.43;3.58;;;20.00;99.90;;;;;;5016297;28;20039;-80
2021/08/20 11:56:58;;;;;;;4.55;3.50;;;20.10;99.90;;;;;;5054599;28;20086;-79
2021/08/20 11:59:24;;;;;;;3.95;3.22;;;20.10;99.90;;;;;;5034463;28;20047;-80
2021/08/20 12:02:01;;;;;;;5.13;3.83;;;20.20;99.90;;;;;;5037373;28;20124;-79
2021/08/20 12:04:28;;;;;;;4.25;3.70;;;20.30;99.90;;;;;;5021822;28;20033;-80
2021/08/20 12:06:55;;;;;;;3.97;3.38;;;20.50;99.90;;;;;;5014757;28;20123;-79
2021/08/20 12:09:22;;;;;;;4.55;4.00;;;20.60;99.90;;;;;;5014516;28;20036;-80
2021/08/20 12:11:51;;;;;;;5.43;2.80;;;20.70;99.90;;;;;;5020043;28;20047;-80
2021/08/20 12:14:23;;;;;;;2.78;2.55;;;20.90;99.90;;;;;;5011864;28;20060;-80
2021/08/20 12:16:53;;;;;;;2.78;2.50;;;20.90;99.90;;;;;;4998214;28;20079;-79
2021/08/20 12:19:21;;;;;;;2.53;2.10;;;21.00;99.90;;;;;;5022937;28;20034;-79
2021/08/20 12:21:53;;;;;;;2.28;2.08;;;21.00;99.90;;;;;;5029878;28;20423;-80
2021/08/20 12:24:36;;;;;;;2.20;2.00;;;21.00;99.90;;;;;;5006144;28;20110;-80
2021/08/20 12:27:21;;;;;;;2.30;2.10;;;21.00;99.90;;;;;;5046689;28;20033;-79
2021/08/20 12:29:59;;;;;;;2.00;1.83;;;21.00;99.90;;;;;;5019593;28;20043;-79
2021/08/20 12:32:26;;;;;;;2.97;1.83;;;20.90;99.90;;;;;;5027175;28;20211;-79
2021/08/20 12:35:12;;;;;;;2.35;2.15;;;20.80;99.90;;;;;;5014182;28;20014;-80
2021/08/20 12:37:37;;;;;;;;;;;20.60;99.90;;;;;;5042932;28;20120;-80
2021/08/20 12:40:13;;;;;;;;;;;20.50;99.90;;;;;;5030315;28;20513;-79
2021/08/20 12:42:44;;;;;;;2.78;2.00;;;20.40;99.90;;;;;;5047148;28;19950;-80
2021/08/20 12:45:14;;;;;;;2.70;2.30;;;20.30;99.90;;;;;;5014038;28;20063;-80
2021/08/20 12:47:42;;;;;;;2.65;2.33;;;20.30;99.90;;;;;;5034915;28;20029;-79
2021/08/20 12:50:10;;;;;;;3.05;2.30;;;20.20;99.90;;;;;;5021350;28;20055;-81
2021/08/20 12:52:36;;;;;;;2.88;1.98;;;20.20;99.90;;;;;;5037965;28;20029;-79
2021/08/20 12:55:29;;;;;;;3.35;2.28;;;20.20;99.90;;;;;;5029648;28;20029;-78
2021/08/20 12:57:56;;;;;;;2.45;2.17;;;20.30;99.90;;;;;;5028877;28;20044;-79
2021/08/20 13:00:23;;;;;;;2.35;2.15;;;20.40;99.90;;;;;;5017301;28;20044;-80
2021/08/20 13:02:49;;;;;;;2.35;2.00;;;20.50;99.90;;;;;;5019973;28;20048;-79
2021/08/20 13:05:15;;;;;;;11.43;2.90;;;20.70;99.90;;;;;;5029949;28;20041;-78
2021/08/20 13:07:41;;;;;;;16.58;5.30;;;20.80;99.90;;;;;;5053417;28;20032;-79
2021/08/20 13:10:07;;;;;;;7.65;3.47;;;21.00;99.90;;;;;;5028352;28;20037;-79
2021/08/20 13:12:33;;;;;;;4.10;2.67;;;21.10;99.90;;;;;;5031859;28;20033;-78
2021/08/20 13:14:59;;;;;;;5.00;2.50;;;21.30;99.90;;;;;;5029730;28;20120;-80
2021/08/20 13:17:25;;;;;;;2.00;1.80;;;21.40;99.90;;;;;;5022189;28;20065;-80
2021/08/20 13:19:51;;;;;;;2.13;1.90;;;21.50;99.90;;;;;;5042864;28;20033;-79
2021/08/20 13:22:17;;;;;;;2.25;2.00;;;21.70;99.90;;;;;;5016823;28;20040;-78
2021/08/20 13:24:43;;;;;;;2.67;2.13;;;21.70;99.90;;;;;;5044742;28;20033;-80
2021/08/20 13:27:09;;;;;;;2.63;1.77;;;21.70;99.90;;;;;;5046749;28;20048;-80
2021/08/20 13:29:36;;;;;;;3.30;1.92;;;21.60;99.90;;;;;;5018898;28;20076;-80
2021/08/20 13:32:03;;;;;;;2.60;1.60;;;21.50;99.90;;;;;;5027376;28;20086;-80
2021/08/20 13:34:29;;;;;;;2.13;1.58;;;21.40;99.90;;;;;;5036506;28;20236;-80
2021/08/20 13:36:55;;;;;;;2.13;1.67;;;21.40;99.90;;;;;;5052874;28;20045;-79
2021/08/20 13:39:21;;;;;;;1.92;1.45;;;21.30;99.90;;;;;;5027280;28;20436;-79
2021/08/20 13:41:47;;;;;;;2.15;1.60;;;21.10;99.90;;;;;;5054405;28;20021;-79
2021/08/20 14:49:00;;;;;;;2.65;1.90;;;21.10;99.90;;;;;;5502032;22;20129;-80
2021/08/20 14:51:26;;;;;;;2.13;1.92;;;21.00;99.90;;;;;;4958715;28;20469;-80